Time;durP1;ratioP1;P1;durP2;ratioP2;P2;SDS_P1;SDS_P2;PMS_P1;PMS_P2;Temp;Humidity;BMP_temperature;BMP_pressure;BME280_temperature;BME280_humidity;BME280_pressure;Samples;Min_cycle;Max_cycle;Signal;HPM_P1;HPM_P2
2021/01/04 00:01:53;;;;;;;5.85;3.40;;;20.60;44.00;;;;;;5112616;28;20115;-43
2021/01/04 00:04:56;;;;;;;5.82;3.30;;;20.60;44.00;;;;;;5113955;28;20055;-42
2021/01/04 00:07:52;;;;;;;4.13;3.55;;;20.60;44.00;;;;;;5112822;28;20038;-44
2021/01/04 00:10:27;;;;;;;4.22;3.75;;;20.60;43.90;;;;;;5113973;28;20062;-43
2021/01/04 00:13:09;;;;;;;3.50;3.20;;;20.60;44.00;;;;;;5114141;28;20027;-44
2021/01/04 00:15:49;;;;;;;6.90;3.60;;;20.60;43.90;;;;;;5114020;28;20027;-40
2021/01/04 00:18:27;;;;;;;4.97;3.58;;;20.60;43.90;;;;;;5113498;28;20020;-45
2021/01/04 00:20:59;;;;;;;4.90;3.72;;;20.60;43.90;;;;;;5114424;28;20059;-49
2021/01/04 00:23:40;;;;;;;4.50;3.33;;;20.60;43.90;;;;;;5113936;28;20430;-40
2021/01/04 00:26:23;;;;;;;4.72;3.88;;;20.60;43.90;;;;;;5113254;28;20051;-44
2021/01/04 00:28:50;;;;;;;4.80;3.47;;;20.60;43.90;;;;;;5113638;28;20034;-42
2021/01/04 00:31:25;;;;;;;4.78;3.42;;;20.60;43.80;;;;;;5113562;28;20095;-47
2021/01/04 00:34:04;;;;;;;4.60;3.80;;;20.60;43.80;;;;;;5113788;28;20114;-46
2021/01/04 00:36:39;;;;;;;6.72;3.97;;;20.60;43.80;;;;;;5113729;28;20092;-45
2021/01/04 00:39:33;;;;;;;4.85;4.00;;;20.60;43.80;;;;;;5112889;28;20408;-42
2021/01/04 00:42:19;;;;;;;4.97;3.72;;;20.60;43.80;;;;;;5113156;28;20020;-56
2021/01/04 00:45:18;;;;;;;4.82;3.35;;;20.60;43.70;;;;;;5113387;28;20031;-41
2021/01/04 00:47:43;;;;;;;6.45;3.80;;;20.60;43.70;;;;;;5114020;28;20160;-43
2021/01/04 00:50:26;;;;;;;6.70;3.75;;;20.60;43.70;;;;;;5111971;28;20118;-42
2021/01/04 00:53:21;;;;;;;5.57;3.88;;;20.60;43.70;;;;;;5113640;28;20024;-42
2021/01/04 00:56:14;;;;;;;5.85;4.05;;;20.60;43.70;;;;;;5113528;28;20023;-57
2021/01/04 00:59:04;;;;;;;4.10;3.60;;;20.60;43.60;;;;;;5113401;28;20099;-42
2021/01/04 01:02:04;;;;;;;4.22;3.47;;;20.70;43.70;;;;;;5113732;28;20524;-41
2021/01/04 01:04:54;;;;;;;5.43;3.65;;;20.60;43.60;;;;;;5113462;28;20110;-40
2021/01/04 01:07:38;;;;;;;4.20;3.30;;;20.70;43.60;;;;;;5112196;28;20028;-43
2021/01/04 01:10:08;;;;;;;4.78;3.47;;;20.70;43.60;;;;;;5112366;28;20020;-40
2021/01/04 01:13:16;;;;;;;4.97;3.92;;;20.70;43.60;;;;;;5113290;28;20089;-43
2021/01/04 01:16:14;;;;;;;4.13;3.10;;;20.70;43.60;;;;;;5084969;28;20043;-44
2021/01/04 01:19:06;;;;;;;5.75;3.78;;;20.70;43.50;;;;;;5091692;27;20031;-42
2021/01/04 01:21:34;;;;;;;5.45;4.13;;;20.70;43.60;;;;;;5113186;27;20020;-43
2021/01/04 01:24:01;;;;;;;5.07;3.65;;;20.70;43.50;;;;;;5112503;28;20583;-55
2021/01/04 01:26:32;;;;;;;6.60;4.25;;;20.70;43.50;;;;;;5112820;28;20027;-42
2021/01/04 01:29:07;;;;;;;4.35;3.60;;;20.70;43.50;;;;;;5112230;28;20538;-57
2021/01/04 01:32:01;;;;;;;4.05;3.53;;;20.70;43.40;;;;;;5111557;28;20035;-42
2021/01/04 01:34:41;;;;;;;5.15;3.83;;;20.70;43.40;;;;;;5112900;28;20036;-57
2021/01/04 01:37:29;;;;;;;6.32;3.50;;;20.70;43.50;;;;;;5112165;28;20031;-47
2021/01/04 01:40:12;;;;;;;4.40;3.53;;;20.70;43.50;;;;;;5112780;28;20032;-43
2021/01/04 01:43:01;;;;;;;6.15;4.00;;;20.70;43.40;;;;;;5112586;28;20495;-43
2021/01/04 01:45:43;;;;;;;5.15;4.13;;;20.70;43.50;;;;;;5112288;28;20468;-42
2021/01/04 01:48:12;;;;;;;4.88;3.75;;;20.70;43.50;;;;;;5111888;28;20023;-42
2021/01/04 01:51:08;;;;;;;5.80;4.28;;;20.70;43.50;;;;;;5112347;28;20080;-43
2021/01/04 01:54:00;;;;;;;5.00;3.63;;;20.70;43.50;;;;;;5107129;28;20035;-45
2021/01/04 01:56:53;;;;;;;4.55;3.95;;;20.70;43.50;;;;;;5112727;28;20019;-47
2021/01/04 01:59:48;;;;;;;4.15;3.25;;;20.70;43.50;;;;;;5112190;28;20028;-44
2021/01/04 02:02:28;;;;;;;5.40;3.83;;;20.70;43.50;;;;;;5110902;28;20020;-42
2021/01/04 02:05:21;;;;;;;4.53;3.40;;;20.70;43.50;;;;;;5112354;28;20040;-46
2021/01/04 02:08:08;;;;;;;5.30;3.90;;;20.70;43.50;;;;;;5112140;28;20134;-43
2021/01/04 02:10:38;;;;;;;6.13;3.75;;;20.70;43.50;;;;;;5112230;28;20038;-43
2021/01/04 02:13:42;;;;;;;5.05;4.15;;;20.70;43.40;;;;;;5111610;28;20028;-43
2021/01/04 02:16:16;;;;;;;4.22;3.47;;;20.70;43.50;;;;;;5098583;28;20034;-39
2021/01/04 02:19:00;;;;;;;5.53;4.35;;;20.70;43.40;;;;;;5112348;28;20434;-42
2021/01/04 02:21:36;;;;;;;4.70;3.58;;;20.70;43.40;;;;;;5111996;28;20465;-42
2021/01/04 02:24:09;;;;;;;4.40;3.63;;;20.70;43.50;;;;;;5110224;28;20035;-57
2021/01/04 02:26:36;;;;;;;4.97;3.90;;;20.70;43.40;;;;;;5111924;28;20496;-44
2021/01/04 02:29:09;;;;;;;5.43;3.72;;;20.70;43.50;;;;;;5111569;28;20027;-56
2021/01/04 02:31:37;;;;;;;6.07;4.45;;;20.70;43.50;;;;;;5110822;28;20078;-35
2021/01/04 02:34:09;;;;;;;6.65;4.50;;;20.70;43.40;;;;;;5111342;28;20849;-37
2021/01/04 02:36:42;;;;;;;7.38;4.20;;;20.70;43.50;;;;;;5111998;28;20020;-43
2021/01/04 02:39:13;;;;;;;6.78;3.50;;;20.70;43.50;;;;;;5111656;28;20535;-39
2021/01/04 02:42:24;;;;;;;6.03;3.90;;;20.70;43.40;;;;;;5112342;28;20076;-45
2021/01/04 02:44:50;;;;;;;5.30;3.80;;;20.70;43.40;;;;;;5112070;28;20031;-42
2021/01/04 02:47:40;;;;;;;4.00;3.53;;;20.70;43.30;;;;;;5111190;28;20035;-42
2021/01/04 02:50:06;;;;;;;5.03;4.00;;;20.70;43.50;;;;;;5111551;28;20034;-42
2021/01/04 02:52:58;;;;;;;5.22;3.65;;;20.70;43.40;;;;;;5112045;28;20024;-36
2021/01/04 02:55:30;;;;;;;5.70;4.20;;;20.70;43.50;;;;;;5111663;28;20023;-45
2021/01/04 02:58:12;;;;;;;4.72;3.97;;;20.70;43.40;;;;;;5111996;28;20030;-43
2021/01/04 03:00:44;;;;;;;6.95;4.32;;;20.70;43.40;;;;;;5111990;28;20039;-43
2021/01/04 03:03:09;;;;;;;4.68;3.50;;;20.70;43.40;;;;;;5111146;28;20028;-43
2021/01/04 03:05:37;;;;;;;3.75;3.35;;;20.70;43.40;;;;;;5111820;28;20042;-43
2021/01/04 03:08:03;;;;;;;4.63;3.72;;;20.70;43.40;;;;;;5109430;28;20047;-58
2021/01/04 03:10:34;;;;;;;5.28;4.28;;;20.70;43.40;;;;;;5111601;28;20027;-35
2021/01/04 03:13:24;;;;;;;5.70;4.18;;;20.70;43.30;;;;;;5111440;28;20019;-56
2021/01/04 03:16:14;;;;;;;5.25;4.07;;;20.70;43.40;;;;;;5115636;28;20038;-44
2021/01/04 03:18:47;;;;;;;4.97;3.72;;;20.70;43.40;;;;;;5115773;28;20032;-43
2021/01/04 03:21:14;;;;;;;4.70;3.75;;;20.70;43.30;;;;;;5114940;28;20051;-41
2021/01/04 03:23:45;;;;;;;5.63;3.90;;;20.70;43.30;;;;;;5115481;28;20106;-45
2021/01/04 03:26:22;;;;;;;6.22;3.83;;;20.70;43.40;;;;;;5114555;28;20118;-44
2021/01/04 03:28:48;;;;;;;4.50;3.90;;;20.80;43.50;;;;;;5115609;28;20063;-39
2021/01/04 03:31:13;;;;;;;4.60;3.92;;;20.70;43.30;;;;;;5114717;28;20063;-40
2021/01/04 03:33:39;;;;;;;6.18;3.97;;;20.70;43.30;;;;;;5115127;28;20168;-45
2021/01/04 03:36:06;;;;;;;5.53;3.72;;;20.70;43.40;;;;;;5114051;28;20456;-56
2021/01/04 03:38:34;;;;;;;4.90;4.00;;;20.70;43.30;;;;;;5115522;28;20023;-42
2021/01/04 03:41:00;;;;;;;4.38;3.90;;;20.70;43.50;;;;;;5115053;27;20030;-43
2021/01/04 03:43:25;;;;;;;4.43;3.83;;;20.70;43.30;;;;;;5114030;28;20102;-43
2021/01/04 03:45:51;;;;;;;5.15;4.03;;;20.70;43.40;;;;;;5114550;28;20042;-43
2021/01/04 03:48:17;;;;;;;4.38;3.80;;;20.70;43.30;;;;;;5114222;28;20024;-55
2021/01/04 03:50:43;;;;;;;5.28;4.03;;;20.70;43.40;;;;;;5114536;28;20456;-42
2021/01/04 03:53:08;;;;;;;5.85;4.38;;;20.70;43.40;;;;;;5114045;28;20066;-39
2021/01/04 03:55:38;;;;;;;5.70;4.43;;;20.70;43.40;;;;;;5114313;28;20035;-43
2021/01/04 03:58:05;;;;;;;5.65;3.80;;;20.70;43.40;;;;;;5113701;28;20027;-56
2021/01/04 04:00:31;;;;;;;5.72;4.18;;;20.80;43.50;;;;;;5114133;28;20038;-41
2021/01/04 04:02:57;;;;;;;5.63;4.20;;;20.70;43.40;;;;;;5114976;28;20019;-42
2021/01/04 04:05:23;;;;;;;5.28;3.85;;;20.70;43.20;;;;;;5113379;28;20508;-42
2021/01/04 04:07:48;;;;;;;6.97;4.07;;;20.80;43.40;;;;;;5114122;28;20082;-42
2021/01/04 04:10:17;;;;;;;3.80;3.33;;;20.80;43.30;;;;;;5112288;28;20101;-45
2021/01/04 04:12:43;;;;;;;5.78;3.83;;;20.70;43.30;;;;;;5113169;28;20023;-44
2021/01/04 04:15:12;;;;;;;6.78;3.83;;;20.80;43.30;;;;;;5112033;28;20043;-43
2021/01/04 04:17:38;;;;;;;6.38;4.25;;;20.70;43.30;;;;;;5111735;28;20365;-46
2021/01/04 04:20:07;;;;;;;4.35;3.60;;;20.70;43.30;;;;;;5112194;28;20046;-56
2021/01/04 04:22:33;;;;;;;4.38;3.85;;;20.80;43.40;;;;;;5112659;28;20024;-45
2021/01/04 04:24:59;;;;;;;5.53;4.47;;;20.80;43.30;;;;;;5112304;27;20492;-56
2021/01/04 04:27:24;;;;;;;6.18;4.10;;;20.70;43.20;;;;;;5112262;28;20059;-44
2021/01/04 04:29:50;;;;;;;6.10;4.55;;;20.80;43.30;;;;;;5112773;28;20468;-39
2021/01/04 04:32:17;;;;;;;4.78;3.95;;;20.70;43.20;;;;;;5111909;28;20019;-40
2021/01/04 04:34:43;;;;;;;6.30;4.00;;;20.80;43.30;;;;;;5108524;28;20107;-38
2021/01/04 04:37:09;;;;;;;5.43;3.80;;;20.80;43.30;;;;;;5111557;28;20507;-42
2021/01/04 04:39:35;;;;;;;5.10;3.72;;;20.70;43.20;;;;;;5112704;28;20030;-43
2021/01/04 04:42:06;;;;;;;5.50;4.20;;;20.80;43.30;;;;;;5112287;28;20380;-38
2021/01/04 04:45:06;;;;;;;6.13;4.00;;;20.80;43.30;;;;;;5112811;28;20035;-39
2021/01/04 04:47:47;;;;;;;6.28;4.22;;;20.80;43.20;;;;;;5110989;28;20059;-36
2021/01/04 04:50:21;;;;;;;6.32;3.72;;;20.80;43.20;;;;;;5110035;28;20015;-34
2021/01/04 04:53:09;;;;;;;5.32;4.28;;;20.80;43.20;;;;;;5109984;28;20054;-40
2021/01/04 04:56:00;;;;;;;6.50;4.68;;;20.80;43.20;;;;;;5111343;28;20038;-45
2021/01/04 04:58:25;;;;;;;4.40;3.70;;;20.80;43.20;;;;;;5112807;28;20027;-42
2021/01/04 05:01:28;;;;;;;4.43;3.80;;;20.80;43.20;;;;;;5113174;28;20035;-42
2021/01/04 05:04:12;;;;;;;5.45;3.90;;;20.80;43.20;;;;;;5113193;28;20031;-43
2021/01/04 05:06:45;;;;;;;6.22;4.43;;;20.80;43.10;;;;;;5113259;28;20024;-46
2021/01/04 05:09:20;;;;;;;5.13;4.03;;;20.80;43.20;;;;;;5112657;28;20457;-42
2021/01/04 05:12:05;;;;;;;4.85;3.80;;;20.80;43.20;;;;;;5112882;28;20027;-42
2021/01/04 05:14:33;;;;;;;4.68;3.78;;;20.80;43.20;;;;;;5112785;28;20074;-42
2021/01/04 05:17:33;;;;;;;5.13;4.00;;;20.80;43.20;;;;;;5112855;28;20023;-39
2021/01/04 05:20:19;;;;;;;7.05;4.32;;;20.80;43.20;;;;;;5112734;28;20036;-48
2021/01/04 05:23:26;;;;;;;4.10;3.70;;;20.80;43.20;;;;;;5112676;28;20472;-46
2021/01/04 05:26:12;;;;;;;6.75;4.13;;;20.80;43.10;;;;;;5053229;28;20032;-42
2021/01/04 05:28:49;;;;;;;4.13;3.72;;;20.80;43.10;;;;;;5069904;28;20029;-42
2021/01/04 05:31:39;;;;;;;5.05;4.18;;;20.80;43.10;;;;;;5098656;28;20415;-41
2021/01/04 05:34:13;;;;;;;4.60;3.60;;;20.80;43.10;;;;;;5112767;28;20019;-55
2021/01/04 05:36:55;;;;;;;5.90;4.10;;;20.80;43.10;;;;;;5111902;28;20034;-43
2021/01/04 05:39:20;;;;;;;4.88;4.13;;;20.80;43.10;;;;;;5112133;28;20028;-51
2021/01/04 05:41:59;;;;;;;6.40;3.80;;;20.80;43.10;;;;;;5112667;28;20043;-42
2021/01/04 05:45:00;;;;;;;6.18;4.38;;;20.80;43.10;;;;;;5111771;28;20039;-41
2021/01/04 05:48:05;;;;;;;4.57;3.78;;;20.80;43.00;;;;;;5111828;28;20023;-50
2021/01/04 05:51:09;;;;;;;6.03;3.90;;;20.80;43.10;;;;;;5112863;28;20135;-42
2021/01/04 05:53:35;;;;;;;3.88;3.47;;;20.80;43.00;;;;;;5112559;28;20034;-42
2021/01/04 05:56:01;;;;;;;5.50;4.18;;;20.80;43.10;;;;;;5112552;28;20461;-42
2021/01/04 05:58:32;;;;;;;4.82;3.60;;;20.80;43.10;;;;;;5111303;28;20099;-45
2021/01/04 06:01:21;;;;;;;5.75;4.05;;;20.80;43.10;;;;;;5112358;28;20110;-42
2021/01/04 06:04:27;;;;;;;4.63;4.00;;;20.80;43.10;;;;;;5112215;28;20059;-46
2021/01/04 06:06:53;;;;;;;4.80;4.30;;;20.80;43.00;;;;;;5111823;28;20487;-42
2021/01/04 06:09:19;;;;;;;6.78;4.70;;;20.80;43.10;;;;;;5111633;28;20047;-42
2021/01/04 06:11:50;;;;;;;6.40;4.30;;;20.80;43.00;;;;;;5112496;28;20116;-43
2021/01/04 06:14:15;;;;;;;4.30;3.80;;;20.80;43.00;;;;;;5111608;28;20063;-42
2021/01/04 06:16:45;;;;;;;4.38;3.67;;;20.80;43.10;;;;;;5111045;28;20437;-43
2021/01/04 06:19:15;;;;;;;4.80;4.15;;;20.80;43.00;;;;;;5111585;28;20077;-45
2021/01/04 06:21:41;;;;;;;4.20;3.80;;;20.80;43.10;;;;;;5112090;28;20020;-43
2021/01/04 06:24:09;;;;;;;5.05;4.15;;;20.80;43.00;;;;;;5111842;28;20368;-56
2021/01/04 06:26:35;;;;;;;5.07;4.53;;;20.80;43.00;;;;;;5112265;28;20028;-48
2021/01/04 06:29:04;;;;;;;4.85;3.97;;;20.80;43.00;;;;;;5112092;28;20131;-44
2021/01/04 06:31:34;;;;;;;4.15;3.70;;;20.80;43.00;;;;;;5111526;28;20829;-43
2021/01/04 06:34:04;;;;;;;5.18;4.18;;;20.80;43.00;;;;;;5112412;28;20076;-40
2021/01/04 06:36:35;;;;;;;4.63;3.80;;;20.80;43.00;;;;;;5111688;28;20016;-52
2021/01/04 06:39:11;;;;;;;5.63;4.45;;;20.80;43.00;;;;;;5112294;28;20109;-45
2021/01/04 06:41:38;;;;;;;5.25;4.25;;;20.80;43.00;;;;;;5111154;28;20031;-42
2021/01/04 06:44:25;;;;;;;6.10;4.20;;;20.80;43.00;;;;;;5112037;28;20047;-35
2021/01/04 06:47:12;;;;;;;4.47;3.58;;;20.80;42.90;;;;;;5111960;28;20484;-42
2021/01/04 06:49:53;;;;;;;4.68;3.70;;;20.80;42.90;;;;;;5114505;28;20024;-42
2021/01/04 06:52:46;;;;;;;5.32;3.90;;;20.80;43.00;;;;;;5115193;28;20055;-40
2021/01/04 06:55:49;;;;;;;6.93;4.20;;;20.80;43.00;;;;;;5115217;28;20111;-46
2021/01/04 06:58:15;;;;;;;5.97;4.50;;;20.80;42.90;;;;;;5115002;28;20035;-36
2021/01/04 07:00:57;;;;;;;4.88;3.90;;;20.80;42.90;;;;;;5115655;28;20043;-44
2021/01/04 07:03:35;;;;;;;4.60;3.75;;;20.80;42.90;;;;;;5114867;28;20469;-52
2021/01/04 07:06:10;;;;;;;4.75;3.92;;;20.80;43.00;;;;;;5115770;28;20040;-41
2021/01/04 07:09:05;;;;;;;4.63;3.92;;;20.80;42.90;;;;;;5115201;28;20173;-40
2021/01/04 07:11:50;;;;;;;5.90;4.88;;;20.80;43.00;;;;;;5105645;28;20035;-55
2021/01/04 07:14:46;;;;;;;6.10;3.90;;;20.80;43.00;;;;;;5115121;28;20050;-42
2021/01/04 07:17:30;;;;;;;4.85;4.05;;;20.80;42.90;;;;;;5114405;27;20098;-46
2021/01/04 07:20:15;;;;;;;6.20;4.00;;;20.80;43.00;;;;;;5115088;28;20028;-39
2021/01/04 07:22:58;;;;;;;4.63;3.83;;;20.90;43.10;;;;;;5116923;27;20032;-41
2021/01/04 07:25:41;;;;;;;6.60;5.22;;;20.90;43.50;;;;;;5114019;28;20063;-42
2021/01/04 07:29:05;;;;;;;5.15;4.13;;;20.90;43.60;;;;;;5114481;28;20039;-43
2021/01/04 07:31:30;;;;;;;5.15;4.22;;;20.90;43.60;;;;;;5071181;28;20028;-38
2021/01/04 07:34:20;;;;;;;4.60;4.07;;;20.90;43.70;;;;;;5072042;28;20020;-41
2021/01/04 07:36:51;;;;;;;4.80;4.15;;;20.90;43.70;;;;;;5071708;28;20041;-42
2021/01/04 07:39:19;;;;;;;7.18;4.10;;;20.90;43.70;;;;;;5071059;28;20121;-41
2021/01/04 07:41:48;;;;;;;5.05;4.45;;;20.90;43.70;;;;;;5084472;28;20087;-39
2021/01/04 07:44:29;;;;;;;5.25;4.20;;;20.90;43.70;;;;;;5091285;28;20523;-41
2021/01/04 07:47:09;;;;;;;5.28;4.45;;;20.90;43.70;;;;;;5092303;28;20059;-41
2021/01/04 07:49:49;;;;;;;5.65;3.95;;;20.90;43.70;;;;;;5091633;28;20036;-41
2021/01/04 07:53:03;;;;;;;5.95;4.18;;;21.00;43.70;;;;;;5091056;28;20036;-41
2021/01/04 07:55:56;;;;;;;5.53;4.22;;;21.00;43.70;;;;;;5082228;28;20091;-42
2021/01/04 07:58:30;;;;;;;6.25;3.78;;;21.00;43.70;;;;;;5091070;28;20062;-43
2021/01/04 08:01:50;;;;;;;3.92;3.53;;;21.00;43.70;;;;;;5091408;28;20032;-42
2021/01/04 08:04:32;;;;;;;5.97;4.07;;;21.00;43.80;;;;;;5070881;28;20040;-48
2021/01/04 08:07:06;;;;;;;5.53;4.22;;;21.00;43.80;;;;;;5124033;27;20035;-40
2021/01/04 08:10:08;;;;;;;5.82;3.92;;;21.00;43.80;;;;;;5113634;28;20054;-42
2021/01/04 08:12:46;;;;;;;6.32;3.88;;;21.00;43.80;;;;;;5113521;28;20016;-39
2021/01/04 08:15:39;;;;;;;4.28;3.72;;;21.00;43.90;;;;;;5113943;28;20141;-57
2021/01/04 08:18:10;;;;;;;5.28;4.05;;;21.00;43.90;;;;;;5114661;28;20028;-41
2021/01/04 08:20:44;;;;;;;5.78;4.53;;;21.00;44.00;;;;;;5113333;28;20508;-42
2021/01/04 08:23:47;;;;;;;5.82;4.50;;;21.00;44.00;;;;;;5128445;27;20024;-53
2021/01/04 08:26:24;;;;;;;4.75;4.15;;;21.00;44.00;;;;;;5132755;27;20092;-55
2021/01/04 08:29:15;;;;;;;7.10;4.20;;;21.00;44.00;;;;;;5134843;27;20090;-41
2021/01/04 08:31:54;;;;;;;5.15;3.90;;;21.00;44.00;;;;;;5134621;27;20110;-41
2021/01/04 08:34:22;;;;;;;4.95;4.00;;;21.00;44.10;;;;;;5133703;27;20476;-41
2021/01/04 08:36:59;;;;;;;5.70;3.95;;;21.00;44.10;;;;;;5134622;27;20025;-46
2021/01/04 08:39:25;;;;;;;7.57;4.05;;;21.00;44.10;;;;;;5133272;27;20019;-42
2021/01/04 08:42:27;;;;;;;5.05;3.95;;;21.00;44.20;;;;;;5134458;27;20050;-41
2021/01/04 08:44:59;;;;;;;6.03;3.70;;;21.00;44.10;;;;;;5134166;27;20544;-41
2021/01/04 08:47:32;;;;;;;7.57;4.07;;;21.00;44.20;;;;;;5133513;27;20028;-43
2021/01/04 08:50:22;;;;;;;4.75;3.55;;;21.00;44.30;;;;;;5134181;27;20031;-46
2021/01/04 08:52:52;;;;;;;8.50;4.00;;;21.10;44.40;;;;;;5131306;27;20027;-51
2021/01/04 08:55:30;;;;;;;5.43;3.72;;;21.20;44.40;;;;;;5132877;27;20050;-44
2021/01/04 08:58:00;;;;;;;10.43;7.53;;;21.10;44.40;;;;;;5134193;27;20031;-44
2021/01/04 09:00:30;;;;;;;11.10;5.63;;;21.00;40.40;;;;;;5132819;27;20058;-56
2021/01/04 09:02:56;;;;;;;9.30;5.50;;;21.00;42.90;;;;;;5111621;28;20077;-43
2021/01/04 09:05:38;;;;;;;7.65;5.20;;;21.00;43.10;;;;;;5112168;28;20036;-43
2021/01/04 09:08:06;;;;;;;7.40;5.55;;;21.00;43.10;;;;;;5111772;28;20138;-44
2021/01/04 09:10:45;;;;;;;8.25;5.15;;;21.10;43.20;;;;;;5111223;28;20047;-47
2021/01/04 09:13:23;;;;;;;6.25;4.50;;;21.20;43.20;;;;;;5111544;28;20468;-44
2021/01/04 09:15:55;;;;;;;8.00;5.45;;;21.20;43.20;;;;;;5112497;28;20103;-44
2021/01/04 09:18:41;;;;;;;8.23;5.73;;;21.20;42.50;;;;;;5112658;28;20024;-46
2021/01/04 09:21:36;;;;;;;7.78;4.90;;;21.20;42.40;;;;;;5112935;28;20474;-42
2021/01/04 09:24:15;;;;;;;6.70;5.60;;;21.10;42.20;;;;;;5092344;28;20034;-42
2021/01/04 09:26:43;;;;;;;6.57;5.82;;;21.10;42.20;;;;;;5092390;28;20039;-36
2021/01/04 09:29:12;;;;;;;8.35;5.97;;;21.10;42.10;;;;;;5091247;28;20028;-44
2021/01/04 09:31:54;;;;;;;13.18;5.82;;;21.10;41.90;;;;;;5091729;28;20028;-40
2021/01/04 09:34:20;;;;;;;10.70;5.60;;;21.10;42.30;;;;;;5091920;28;20032;-44
2021/01/04 09:36:47;;;;;;;10.15;6.03;;;21.20;42.90;;;;;;5091964;28;20068;-41
2021/01/04 09:39:15;;;;;;;11.15;6.88;;;21.20;42.60;;;;;;5091485;28;20031;-42
2021/01/04 09:41:46;;;;;;;10.30;7.38;;;21.20;42.10;;;;;;5090997;28;20012;-41
2021/01/04 09:44:19;;;;;;;11.70;7.97;;;21.20;41.30;;;;;;5092176;28;20039;-40
2021/01/04 09:46:52;;;;;;;10.07;6.88;;;21.20;41.20;;;;;;5092460;28;20034;-42
2021/01/04 09:49:46;;;;;;;20.45;15.77;;;21.20;39.60;;;;;;5091350;28;20028;-41
2021/01/04 09:52:25;;;;;;;21.42;16.25;;;19.50;33.50;;;;;;5104172;27;20098;-37
2021/01/04 09:54:55;;;;;;;23.83;16.48;;;16.50;37.30;;;;;;5132905;27;20536;-40
2021/01/04 09:57:24;;;;;;;22.10;16.88;;;15.30;39.80;;;;;;5131841;27;20019;-49
2021/01/04 09:59:52;;;;;;;23.52;16.92;;;14.70;41.10;;;;;;5117706;27;20044;-39
2021/01/04 10:02:28;;;;;;;19.17;14.65;;;14.70;41.50;;;;;;5111396;28;20024;-43
2021/01/04 10:05:03;;;;;;;20.55;14.05;;;16.40;39.00;;;;;;5112447;28;20026;-38
2021/01/04 10:07:29;;;;;;;17.58;12.45;;;17.90;37.80;;;;;;5108890;28;20027;-45
2021/01/04 10:09:56;;;;;;;14.15;10.63;;;18.80;37.30;;;;;;5109714;28;20059;-36
2021/01/04 10:12:25;;;;;;;14.18;10.75;;;19.40;37.00;;;;;;5110850;28;20059;-40
2021/01/04 10:14:57;;;;;;;12.15;9.38;;;19.70;36.90;;;;;;5111459;28;20012;-38
2021/01/04 10:17:27;;;;;;;;;;;20.00;37.10;;;;;;5111316;28;20046;-50
2021/01/04 10:20:00;;;;;;;11.75;8.95;;;20.20;37.30;;;;;;5112378;28;19908;-42
2021/01/04 10:22:31;;;;;;;12.70;8.88;;;20.30;37.10;;;;;;5107574;27;20015;-42
2021/01/04 10:25:19;;;;;;;14.88;8.68;;;20.30;37.40;;;;;;5114236;28;20026;-35
2021/01/04 10:27:50;;;;;;;10.23;6.97;;;20.30;37.80;;;;;;5115600;28;20038;-41
2021/01/04 10:30:17;;;;;;;11.87;7.13;;;20.50;38.00;;;;;;5117315;27;20050;-46
2021/01/04 10:32:43;;;;;;;11.48;6.93;;;20.60;38.00;;;;;;5115522;28;20027;-42
2021/01/04 10:35:22;;;;;;;8.13;6.63;;;20.60;37.90;;;;;;5119396;27;20031;-43
2021/01/04 10:37:53;;;;;;;8.13;6.47;;;20.60;38.20;;;;;;5136335;27;20375;-42
2021/01/04 10:40:22;;;;;;;9.50;6.68;;;20.80;38.30;;;;;;5135853;27;20799;-42
2021/01/04 10:42:59;;;;;;;7.25;6.05;;;20.90;38.40;;;;;;5136444;27;20417;-42
2021/01/04 10:45:42;;;;;;;12.23;6.63;;;20.80;38.50;;;;;;5135832;27;20100;-41
2021/01/04 10:48:23;;;;;;;8.48;6.38;;;20.90;38.70;;;;;;5136261;27;20092;-36
2021/01/04 10:50:52;;;;;;;10.70;5.60;;;20.80;38.90;;;;;;5128088;27;20076;-43
2021/01/04 10:53:35;;;;;;;9.65;6.57;;;20.90;38.90;;;;;;5134559;27;20034;-50
2021/01/04 10:56:10;;;;;;;7.93;5.50;;;21.00;39.00;;;;;;5095629;28;20024;-42
2021/01/04 10:58:46;;;;;;;8.10;5.68;;;21.10;39.00;;;;;;5094033;28;20038;-45
2021/01/04 11:01:16;;;;;;;9.50;6.13;;;21.00;39.30;;;;;;5095047;28;20153;-44
2021/01/04 11:03:52;;;;;;;12.27;7.82;;;21.00;39.40;;;;;;5093731;28;20035;-43
2021/01/04 11:06:31;;;;;;;11.02;6.90;;;21.00;39.70;;;;;;5105203;28;20023;-47
2021/01/04 11:08:57;;;;;;;14.95;7.20;;;21.00;40.00;;;;;;5094744;28;20051;-41
2021/01/04 11:11:36;;;;;;;10.20;6.30;;;21.00;40.50;;;;;;5094169;28;20078;-43
2021/01/04 11:14:13;;;;;;;10.45;6.70;;;21.00;40.40;;;;;;5094832;28;20028;-44
2021/01/04 11:16:41;;;;;;;9.07;5.35;;;21.00;40.70;;;;;;5094713;28;20609;-41
2021/01/04 11:19:07;;;;;;;13.73;5.45;;;21.00;42.40;;;;;;5127818;27;20031;-40
2021/01/04 11:21:43;;;;;;;11.32;5.68;;;21.00;42.80;;;;;;5094257;27;20020;-54
2021/01/04 11:24:09;;;;;;;15.05;5.75;;;21.00;42.70;;;;;;5124452;27;20027;-45
2021/01/04 11:26:35;;;;;;;13.55;5.47;;;21.00;43.30;;;;;;5135214;27;20034;-42
2021/01/04 11:29:00;;;;;;;26.17;5.63;;;21.10;43.60;;;;;;5135370;27;20023;-41
2021/01/04 11:31:31;;;;;;;10.45;5.32;;;21.00;44.10;;;;;;5134959;27;20472;-42
2021/01/04 11:34:00;;;;;;;11.27;5.63;;;21.00;43.30;;;;;;5134991;27;20448;-54
2021/01/04 11:36:26;;;;;;;16.45;6.05;;;20.90;43.70;;;;;;5133939;27;20053;-42
2021/01/04 11:38:51;;;;;;;10.82;5.25;;;20.90;43.70;;;;;;5115320;27;20023;-42
2021/01/04 11:41:17;;;;;;;10.88;4.97;;;20.90;43.90;;;;;;5114580;28;20362;-55
2021/01/04 11:43:43;;;;;;;8.63;4.63;;;20.90;44.00;;;;;;5114315;28;20434;-42
2021/01/04 11:46:09;;;;;;;9.50;5.00;;;20.90;44.20;;;;;;5114836;28;20123;-42
2021/01/04 11:48:35;;;;;;;8.65;4.82;;;20.90;44.30;;;;;;5113935;28;20026;-42
2021/01/04 11:51:01;;;;;;;6.72;4.57;;;20.90;44.60;;;;;;5114931;28;20107;-42
2021/01/04 11:53:29;;;;;;;7.60;4.40;;;20.90;44.70;;;;;;5110713;27;20023;-56
2021/01/04 11:55:55;;;;;;;9.35;5.35;;;20.90;44.80;;;;;;5113603;28;20119;-43
2021/01/04 11:58:21;;;;;;;6.05;4.22;;;20.90;44.90;;;;;;5113521;28;20103;-61
2021/01/04 12:00:46;;;;;;;8.23;4.47;;;20.90;45.00;;;;;;5114412;28;20035;-41
2021/01/04 12:03:12;;;;;;;12.48;4.50;;;20.90;45.10;;;;;;5113235;28;20024;-41
2021/01/04 12:05:38;;;;;;;5.60;4.50;;;20.90;45.20;;;;;;5112142;28;20620;-45
2021/01/04 12:08:04;;;;;;;5.65;4.30;;;20.90;45.30;;;;;;5112954;28;20050;-42
2021/01/04 12:10:29;;;;;;;6.60;4.03;;;20.90;45.50;;;;;;5113396;28;20446;-42
2021/01/04 12:12:56;;;;;;;8.68;4.10;;;20.90;45.50;;;;;;5114225;28;20026;-41
2021/01/04 12:15:22;;;;;;;7.10;4.82;;;20.90;45.50;;;;;;5113279;28;20063;-57
2021/01/04 12:17:48;;;;;;;6.50;4.00;;;20.90;45.80;;;;;;5114302;28;20073;-44
2021/01/04 12:20:14;;;;;;;5.95;4.45;;;21.00;46.00;;;;;;5114528;28;20028;-44
2021/01/04 12:22:40;;;;;;;7.35;4.22;;;21.00;46.10;;;;;;5113645;27;20020;-43
2021/01/04 12:25:07;;;;;;;4.85;3.58;;;21.00;46.20;;;;;;5117966;27;20063;-43
2021/01/04 12:27:32;;;;;;;9.13;3.90;;;21.00;46.40;;;;;;5135536;27;20098;-42
2021/01/04 12:29:58;;;;;;;9.07;4.25;;;21.10;46.40;;;;;;5134314;27;20110;-43
2021/01/04 12:32:24;;;;;;;6.78;4.05;;;21.10;46.20;;;;;;5133746;27;20023;-41
2021/01/04 12:34:49;;;;;;;5.90;3.63;;;21.10;46.40;;;;;;5133206;27;20038;-39
2021/01/04 12:37:16;;;;;;;6.32;3.95;;;21.10;46.70;;;;;;5133951;27;20027;-41
2021/01/04 12:39:42;;;;;;;7.90;3.63;;;21.10;46.70;;;;;;5133350;27;20563;-39
2021/01/04 12:42:08;;;;;;;7.85;4.05;;;21.10;46.90;;;;;;5134523;27;20076;-44
2021/01/04 12:44:34;;;;;;;6.82;3.88;;;21.00;47.00;;;;;;5133367;27;20113;-41
2021/01/04 12:47:00;;;;;;;6.80;3.90;;;21.10;47.00;;;;;;5133840;27;20102;-40
2021/01/04 12:49:26;;;;;;;6.72;4.22;;;21.10;47.20;;;;;;5133212;27;20417;-42
2021/01/04 12:51:58;;;;;;;6.38;4.07;;;21.00;47.10;;;;;;5129014;27;20253;-41
2021/01/04 12:54:28;;;;;;;6.97;4.05;;;21.00;47.10;;;;;;5106211;27;20028;-45
2021/01/04 12:56:56;;;;;;;10.55;4.38;;;21.00;47.40;;;;;;5113697;28;20067;-41
2021/01/04 12:59:24;;;;;;;10.30;4.28;;;21.10;47.30;;;;;;5112671;28;20129;-56
2021/01/04 13:01:52;;;;;;;8.30;3.72;;;21.00;47.40;;;;;;5116135;27;20455;-36
2021/01/04 13:04:23;;;;;;;9.95;5.68;;;21.00;47.40;;;;;;5133446;27;20039;-40
2021/01/04 13:06:49;;;;;;;9.13;4.18;;;21.00;47.50;;;;;;5133697;27;20062;-38
2021/01/04 13:09:16;;;;;;;6.28;3.78;;;21.10;47.50;;;;;;5133488;27;20054;-43
2021/01/04 13:11:46;;;;;;;11.07;5.30;;;21.10;47.60;;;;;;5131758;27;20250;-42
2021/01/04 13:14:12;;;;;;;5.88;4.45;;;21.10;47.60;;;;;;5128359;27;20027;-49
2021/01/04 13:16:38;;;;;;;8.05;4.30;;;21.10;47.70;;;;;;5132724;27;20038;-41
2021/01/04 13:19:05;;;;;;;11.38;4.70;;;21.10;48.00;;;;;;5133507;27;20046;-39
2021/01/04 13:21:31;;;;;;;7.78;3.80;;;21.10;48.40;;;;;;5133353;27;20023;-39
2021/01/04 13:23:57;;;;;;;19.48;5.47;;;21.10;48.60;;;;;;5128874;27;20030;-50
2021/01/04 13:26:23;;;;;;;7.25;4.15;;;21.00;48.50;;;;;;5110304;27;20040;-55
2021/01/04 13:28:48;;;;;;;6.70;3.95;;;21.00;48.60;;;;;;5111448;27;20039;-43
2021/01/04 13:31:22;;;;;;;9.75;3.83;;;21.00;48.30;;;;;;5112190;28;20372;-42